Time;durP1;ratioP1;P1;durP2;ratioP2;P2;SDS_P1;SDS_P2;PMS_P1;PMS_P2;Temp;Humidity;BMP_temperature;BMP_pressure;BME280_temperature;BME280_humidity;BME280_pressure;Samples;Min_cycle;Max_cycle;Signal;HPM_P1;HPM_P2
2022/11/26 00:02:28;;;;;;;0.60;0.57;;;;;;;7.32;73.71;102626.69;5045856;28;20068;-79
2022/11/26 00:04:55;;;;;;;0.20;0.20;;;;;;;7.19;73.40;102628.16;5049052;28;20485;-79
2022/11/26 00:07:25;;;;;;;0.10;0.10;;;;;;;7.11;74.30;102622.69;5050951;28;20033;-79
2022/11/26 00:09:53;;;;;;;0.43;0.43;;;;;;;7.13;73.83;102630.66;5048938;28;20060;-79
2022/11/26 00:12:22;;;;;;;0.10;0.10;;;;;;;7.13;73.59;102628.91;5045748;28;20029;-79
2022/11/26 00:14:48;;;;;;;0.20;0.20;;;;;;;7.09;73.94;102636.69;5045490;28;20017;-79
2022/11/26 00:17:15;;;;;;;0.10;0.10;;;;;;;7.10;74.08;102641.13;5044366;28;20079;-79
2022/11/26 00:19:43;;;;;;;0.50;0.50;;;;;;;7.08;73.85;102635.81;5048919;28;20512;-79
2022/11/26 00:22:29;;;;;;;0.20;0.20;;;;;;;7.12;73.65;102637.66;5043017;28;20053;-79
2022/11/26 00:24:56;;;;;;;0.17;0.17;;;;;;;7.03;73.70;102632.19;5051533;28;20119;-79
2022/11/26 00:27:26;;;;;;;0.13;0.13;;;;;;;6.99;73.91;102632.97;5047832;28;20033;-77
2022/11/26 00:29:53;;;;;;;0.10;0.10;;;;;;;6.95;74.29;102639.00;5046990;28;20381;-80
2022/11/26 00:32:23;;;;;;;0.17;0.17;;;;;;;6.96;74.24;102640.78;5039173;28;20022;-79
2022/11/26 00:34:49;;;;;;;0.20;0.20;;;;;;;6.95;74.12;102639.00;5042099;28;20033;-79
2022/11/26 00:37:20;;;;;;;0.10;0.10;;;;;;;6.98;74.41;102649.63;5045369;28;20099;-79
2022/11/26 00:39:47;;;;;;;0.20;0.20;;;;;;;6.97;74.31;102640.81;5042143;28;20036;-78
2022/11/26 00:42:14;;;;;;;0.20;0.20;;;;;;;7.00;74.32;102652.31;5039904;28;20056;-79
2022/11/26 00:44:40;;;;;;;0.20;0.20;;;;;;;6.99;74.65;102646.16;5039371;28;20029;-79
2022/11/26 00:47:07;;;;;;;0.30;0.30;;;;;;;7.01;75.07;102654.09;5043428;28;20037;-79
2022/11/26 00:49:33;;;;;;;0.20;0.20;;;;;;;7.04;74.89;102649.78;5038893;28;20098;-79
2022/11/26 00:52:00;;;;;;;0.20;0.20;;;;;;;7.09;74.72;102647.25;5045440;28;20516;-79
2022/11/26 00:54:26;;;;;;;0.20;0.20;;;;;;;7.11;74.79;102651.69;5044109;28;20115;-79
2022/11/26 00:56:52;;;;;;;0.20;0.20;;;;;;;7.14;74.64;102648.25;5036039;28;20048;-78
2022/11/26 00:59:22;;;;;;;0.20;0.20;;;;;;;7.16;74.61;102645.66;5032202;28;20045;-79
2022/11/26 01:01:49;;;;;;;0.20;0.20;;;;;;;7.12;74.74;102647.31;5050027;28;20026;-78
2022/11/26 01:04:15;;;;;;;0.10;0.10;;;;;;;7.10;75.32;102647.31;5051632;28;20044;-79
2022/11/26 01:06:43;;;;;;;0.10;0.10;;;;;;;7.09;75.15;102648.16;5034155;28;20021;-80
2022/11/26 01:09:19;;;;;;;0.32;0.32;;;;;;;7.11;75.17;102646.41;5033148;28;20052;-78
2022/11/26 01:11:46;;;;;;;0.20;0.20;;;;;;;7.05;75.45;102651.56;5030828;28;20033;-78
2022/11/26 01:14:16;;;;;;;0.20;0.20;;;;;;;7.04;75.05;102654.16;5028313;28;20067;-79
2022/11/26 01:16:44;;;;;;;1.90;0.75;;;;;;;6.98;74.85;102649.63;5029904;28;20037;-79
2022/11/26 01:19:13;;;;;;;0.28;0.28;;;;;;;6.95;74.88;102654.81;5028126;28;20026;-79
2022/11/26 01:21:40;;;;;;;0.30;0.30;;;;;;;6.91;75.04;102663.53;5026731;28;20025;-77
2022/11/26 01:24:06;;;;;;;0.20;0.20;;;;;;;6.87;74.75;102666.94;5029403;28;20049;-79
2022/11/26 01:26:38;;;;;;;0.10;0.10;;;;;;;6.82;75.13;102684.34;5032822;28;20097;-78
2022/11/26 01:29:04;;;;;;;0.20;0.20;;;;;;;6.78;74.85;102684.28;5029413;28;20401;-79
2022/11/26 01:31:31;;;;;;;0.20;0.20;;;;;;;6.77;75.41;102687.75;5032331;28;20025;-79
2022/11/26 01:33:57;;;;;;;1.67;1.55;;;;;;;6.76;75.72;102691.25;5029147;28;20092;-78
2022/11/26 01:36:28;;;;;;;0.20;0.20;;;;;;;6.87;75.41;102698.56;5027298;28;20034;-78
2022/11/26 01:38:58;;;;;;;0.73;0.73;;;;;;;6.88;75.67;102701.22;5029916;28;20033;-79
2022/11/26 01:41:41;;;;;;;0.20;0.20;;;;;;;6.92;75.85;102700.44;5033194;28;20112;-79
2022/11/26 01:44:14;;;;;;;0.17;0.17;;;;;;;6.95;75.68;102687.34;5034560;28;20037;-78
2022/11/26 01:46:41;;;;;;;0.20;0.20;;;;;;;6.94;76.33;102680.28;5033058;28;20030;-79
2022/11/26 01:49:16;;;;;;;0.20;0.20;;;;;;;7.00;75.95;102684.81;5029996;28;20061;-79
2022/11/26 01:51:44;;;;;;;0.30;0.30;;;;;;;6.99;75.90;102684.78;5028552;28;20117;-79
2022/11/26 01:54:11;;;;;;;0.30;0.30;;;;;;;6.99;76.19;102685.69;5024802;28;20026;-79
2022/11/26 01:56:42;;;;;;;0.20;0.20;;;;;;;7.02;75.95;102691.03;5025974;28;20029;-79
2022/11/26 02:01:45;;;;;;;0.10;0.10;;;;;;;6.98;76.67;102697.06;5077187;28;20950;-79
2022/11/26 02:06:54;;;;;;;0.13;0.13;;;;;;;7.06;75.72;102689.34;5064735;28;20415;-78
2022/11/26 02:09:22;;;;;;;0.35;0.35;;;;;;;7.06;76.41;102684.97;5046170;28;20025;-79
2022/11/26 02:11:49;;;;;;;0.10;0.10;;;;;;;7.05;76.42;102684.94;5050310;28;20029;-78
2022/11/26 02:14:22;;;;;;;0.15;0.15;;;;;;;7.07;76.22;102680.59;5047100;28;20037;-79
2022/11/26 02:17:06;;;;;;;0.22;0.22;;;;;;;7.07;76.10;102678.84;5045221;28;20032;-78
2022/11/26 02:24:57;;;;;;;0.20;0.20;;;;;;;7.06;75.60;102690.22;5078161;27;1846325;-78
2022/11/26 02:30:05;;;;;;;0.10;0.10;;;;;;;7.09;75.90;102685.06;5057094;28;20391;-78
2022/11/26 02:32:49;;;;;;;0.20;0.20;;;;;;;7.15;75.29;102691.31;5052569;28;20031;-78
2022/11/26 02:35:40;;;;;;;0.10;0.10;;;;;;;7.11;75.58;102693.88;5055913;28;20029;-78
2022/11/26 02:38:12;;;;;;;0.17;0.17;;;;;;;7.10;75.59;102689.47;5051968;28;20104;-78
2022/11/26 02:40:38;;;;;;;0.17;0.17;;;;;;;7.08;75.86;102690.28;5050654;28;20060;-79
2022/11/26 02:43:04;;;;;;;0.15;0.15;;;;;;;7.09;76.29;102694.69;5051609;28;20037;-79
2022/11/26 02:45:35;;;;;;;0.73;0.73;;;;;;;7.12;75.84;102698.28;5051451;28;20040;-78
2022/11/26 02:48:05;;;;;;;0.40;0.40;;;;;;;7.07;75.98;102702.56;5052372;28;20021;-78
2022/11/26 02:50:41;;;;;;;0.22;0.22;;;;;;;7.10;76.41;102707.94;5058878;28;20028;-78
2022/11/26 02:53:09;;;;;;;0.52;0.52;;;;;;;7.13;75.67;102707.97;5070638;28;20044;-79
2022/11/26 02:55:41;;;;;;;0.20;0.20;;;;;;;7.11;76.03;102720.22;5070890;28;20060;-79
2022/11/26 02:58:07;;;;;;;0.20;0.20;;;;;;;7.10;76.16;102723.75;5062444;28;20020;-79
2022/11/26 03:00:38;;;;;;;0.10;0.10;;;;;;;7.11;76.44;102720.22;5057796;28;20051;-79
2022/11/26 03:03:21;;;;;;;0.10;0.10;;;;;;;7.17;76.53;102713.34;5056067;28;20104;-77
2022/11/26 03:05:52;;;;;;;0.20;0.20;;;;;;;7.17;76.04;102714.22;5060057;28;20039;-79
2022/11/26 03:08:19;;;;;;;0.10;0.10;;;;;;;7.17;76.08;102718.63;5066936;28;20035;-79
2022/11/26 03:10:45;;;;;;;0.10;0.10;;;;;;;7.15;76.26;102718.56;5067994;28;20373;-79
2022/11/26 03:13:11;;;;;;;0.10;0.10;;;;;;;7.21;76.05;102717.81;5063353;28;20040;-79
2022/11/26 03:15:37;;;;;;;1.80;1.70;;;;;;;7.18;76.30;102709.84;5056870;28;20084;-79
2022/11/26 03:18:04;;;;;;;0.10;0.10;;;;;;;7.25;76.21;102722.31;5062935;28;20032;-79
2022/11/26 03:20:30;;;;;;;0.20;0.20;;;;;;;7.25;76.13;102722.31;5064936;28;20036;-79
2022/11/26 03:22:56;;;;;;;0.10;0.10;;;;;;;7.22;76.39;102712.59;5059060;28;20039;-79
2022/11/26 03:25:22;;;;;;;0.40;0.40;;;;;;;7.25;76.98;102717.03;5067728;28;20040;-79
2022/11/26 03:27:48;;;;;;;0.10;0.10;;;;;;;7.28;76.29;102722.41;5070219;28;20461;-79
2022/11/26 03:30:14;;;;;;;0.10;0.10;;;;;;;7.29;76.26;102725.06;5072102;28;20045;-79
2022/11/26 03:32:40;;;;;;;0.93;0.93;;;;;;;7.32;76.43;102731.28;5057350;28;20075;-78
2022/11/26 03:35:07;;;;;;;0.10;0.10;;;;;;;7.31;76.06;102732.13;5072555;28;20037;-79
2022/11/26 03:37:33;;;;;;;0.40;0.40;;;;;;;7.31;75.90;102737.41;5088906;28;20036;-78
2022/11/26 03:39:59;;;;;;;0.10;0.10;;;;;;;7.28;76.07;102732.94;5070813;28;20045;-78
2022/11/26 03:42:25;;;;;;;0.10;0.10;;;;;;;7.27;76.68;102734.69;5061632;28;20407;-78
2022/11/26 03:44:51;;;;;;;1.85;1.45;;;;;;;7.31;76.01;102738.28;5057755;28;20033;-79
2022/11/26 03:47:17;;;;;;;0.20;0.20;;;;;;;7.29;76.59;102734.75;5056885;28;20108;-79
2022/11/26 03:49:43;;;;;;;1.75;0.50;;;;;;;7.35;76.54;102733.97;5055177;28;20033;-78
2022/11/26 03:52:10;;;;;;;0.10;0.10;;;;;;;7.38;76.68;102734.94;5052314;28;20033;-78
2022/11/26 03:54:36;;;;;;;0.20;0.20;;;;;;;7.42;76.36;102742.06;5056214;28;20090;-78
2022/11/26 03:57:02;;;;;;;0.20;0.20;;;;;;;7.47;76.73;102743.94;5056695;28;20040;-78
2022/11/26 03:59:28;;;;;;;0.10;0.10;;;;;;;7.49;76.38;102758.03;5042780;28;20442;-78
2022/11/26 04:01:54;;;;;;;0.13;0.13;;;;;;;7.52;76.80;102758.13;5050296;28;20033;-78
2022/11/26 04:04:20;;;;;;;0.20;0.20;;;;;;;7.52;76.69;102752.84;5049447;28;20460;-78
2022/11/26 04:06:46;;;;;;;0.30;0.30;;;;;;;7.53;76.60;102752.00;5052433;28;20035;-78
2022/11/26 04:09:12;;;;;;;0.20;0.20;;;;;;;7.52;76.33;102745.81;5053912;28;20040;-77
2022/11/26 04:11:38;;;;;;;0.10;0.10;;;;;;;7.52;76.49;102740.53;5048695;28;20061;-78
2022/11/26 04:14:04;;;;;;;0.10;0.10;;;;;;;7.53;76.72;102744.97;5048483;28;20032;-78
2022/11/26 04:16:30;;;;;;;0.10;0.10;;;;;;;7.55;76.82;102745.00;5044896;28;20516;-79
2022/11/26 04:18:56;;;;;;;2.15;2.05;;;;;;;7.55;76.24;102745.91;5052443;28;20185;-78
2022/11/26 04:21:22;;;;;;;0.10;0.10;;;;;;;7.56;76.17;102754.69;5045968;28;20519;-78
2022/11/26 04:23:49;;;;;;;0.20;0.20;;;;;;;7.53;76.39;102747.59;5053568;28;20056;-79
2022/11/26 04:26:15;;;;;;;1.05;1.05;;;;;;;7.53;76.87;102746.72;5047520;28;20420;-78
2022/11/26 04:28:41;;;;;;;0.20;0.20;;;;;;;7.55;76.06;102758.19;5047202;28;20429;-78
2022/11/26 04:31:07;;;;;;;0.20;0.20;;;;;;;7.52;76.20;102753.72;5039516;28;20043;-78
2022/11/26 04:33:33;;;;;;;0.30;0.30;;;;;;;7.52;76.60;102752.84;5051404;28;20056;-78
2022/11/26 04:35:59;;;;;;;0.98;0.98;;;;;;;7.50;75.96;102754.53;5051355;28;20100;-78
2022/11/26 04:38:25;;;;;;;0.30;0.30;;;;;;;7.50;76.36;102759.81;5063959;28;20044;-77
2022/11/26 04:40:52;;;;;;;1.23;0.70;;;;;;;7.47;76.87;102757.13;5064477;28;20109;-77
2022/11/26 04:43:18;;;;;;;0.40;0.40;;;;;;;7.53;76.04;102752.00;5061250;28;20037;-78
2022/11/26 04:45:44;;;;;;;0.10;0.10;;;;;;;7.50;76.77;102755.47;5062007;28;20484;-78
2022/11/26 04:48:10;;;;;;;0.30;0.30;;;;;;;7.52;76.48;102758.13;5064276;28;20068;-77
2022/11/26 04:50:37;;;;;;;0.20;0.20;;;;;;;7.51;76.71;102757.22;5072671;28;20040;-77
2022/11/26 04:53:03;;;;;;;0.15;0.15;;;;;;;7.54;76.29;102759.03;5065022;28;20033;-78
2022/11/26 04:55:29;;;;;;;0.20;0.20;;;;;;;7.53;76.69;102759.91;5061617;28;20114;-78
2022/11/26 04:57:55;;;;;;;0.98;0.98;;;;;;;7.51;76.20;102772.16;5055289;28;20041;-78
2022/11/26 05:00:21;;;;;;;0.20;0.20;;;;;;;7.49;76.38;102773.84;5047600;28;20029;-78
2022/11/26 05:02:47;;;;;;;0.10;0.10;;;;;;;7.45;76.31;102779.06;5055638;28;20025;-78
2022/11/26 05:05:14;;;;;;;0.10;0.10;;;;;;;7.42;76.25;102784.25;5049021;28;20112;-79
2022/11/26 05:07:40;;;;;;;0.20;0.20;;;;;;;7.38;75.81;102787.69;5050851;28;20040;-78
2022/11/26 05:10:07;;;;;;;0.20;0.20;;;;;;;7.34;75.61;102784.94;5052664;28;20044;-78
2022/11/26 05:12:34;;;;;;;0.10;0.10;;;;;;;7.32;76.00;102787.53;5051464;28;20091;-78
2022/11/26 05:15:00;;;;;;;0.20;0.20;;;;;;;7.32;75.67;102795.44;5052881;28;20036;-78
2022/11/26 05:17:26;;;;;;;0.10;0.10;;;;;;;7.30;75.76;102786.59;5043370;28;20112;-78
2022/11/26 05:19:52;;;;;;;1.60;1.23;;;;;;;7.29;75.37;102787.47;5057009;28;20033;-78
2022/11/26 05:22:18;;;;;;;0.20;0.20;;;;;;;7.30;76.02;102789.22;5050843;28;20025;-78
2022/11/26 05:24:44;;;;;;;0.17;0.17;;;;;;;7.27;75.75;102783.91;5052141;28;20021;-79
2022/11/26 05:27:10;;;;;;;0.10;0.10;;;;;;;7.25;75.86;102785.59;5054701;28;20029;-79
2022/11/26 05:29:36;;;;;;;0.20;0.20;;;;;;;7.25;76.19;102797.06;5054297;28;20036;-79
2022/11/26 05:32:03;;;;;;;0.30;0.30;;;;;;;7.24;75.47;102794.34;5053806;28;20533;-79
2022/11/26 05:34:29;;;;;;;0.20;0.20;;;;;;;7.21;75.57;102797.81;5039042;28;20051;-79
2022/11/26 05:36:55;;;;;;;0.10;0.10;;;;;;;7.20;75.19;102798.69;5046929;28;20098;-79
2022/11/26 05:39:21;;;;;;;0.32;0.32;;;;;;;7.17;75.50;102803.84;5040336;28;20456;-79
2022/11/26 05:41:48;;;;;;;0.10;0.10;;;;;;;7.13;75.42;102808.16;5046160;28;20040;-79
2022/11/26 05:44:14;;;;;;;0.20;0.20;;;;;;;7.10;75.22;102818.63;5048067;28;20583;-79
2022/11/26 05:46:41;;;;;;;0.10;0.10;;;;;;;7.07;75.11;102810.63;5050854;28;20035;-80
2022/11/26 05:49:08;;;;;;;0.10;0.10;;;;;;;7.04;75.19;102818.47;5052614;28;20021;-79
2022/11/26 05:51:34;;;;;;;0.20;0.20;;;;;;;7.02;75.15;102814.91;5047949;28;20448;-79
2022/11/26 05:54:00;;;;;;;0.28;0.28;;;;;;;7.00;75.11;102810.44;5045386;28;20124;-78
2022/11/26 05:56:26;;;;;;;0.10;0.10;;;;;;;6.98;75.16;102813.03;5047851;28;20094;-77
2022/11/26 05:58:52;;;;;;;0.20;0.20;;;;;;;6.97;75.16;102813.88;5058766;28;20047;-78
2022/11/26 06:01:18;;;;;;;0.70;0.70;;;;;;;6.95;75.39;102823.47;5056263;28;20037;-79
2022/11/26 06:03:44;;;;;;;0.20;0.20;;;;;;;6.93;74.86;102809.41;5053872;28;20025;-78
2022/11/26 06:06:10;;;;;;;0.10;0.10;;;;;;;6.92;75.00;102819.03;5064089;28;20023;-77
2022/11/26 06:08:36;;;;;;;0.10;0.10;;;;;;;6.92;74.92;102823.41;5066339;28;20032;-78
2022/11/26 06:11:02;;;;;;;0.20;0.20;;;;;;;6.90;74.99;102815.47;5051427;28;20051;-79
2022/11/26 06:13:28;;;;;;;0.20;0.20;;;;;;;6.90;75.07;102825.09;5046780;28;20035;-79
2022/11/26 06:15:55;;;;;;;0.80;0.70;;;;;;;6.90;75.32;102819.84;5042197;28;20034;-78
2022/11/26 06:18:21;;;;;;;0.50;0.50;;;;;;;6.89;74.81;102812.78;5051476;28;20025;-79
2022/11/26 06:20:47;;;;;;;0.10;0.10;;;;;;;6.89;74.91;102818.03;5046199;28;20030;-78
2022/11/26 06:23:13;;;;;;;0.15;0.15;;;;;;;6.90;75.02;102817.19;5049400;28;20520;-79
2022/11/26 06:25:40;;;;;;;1.85;1.75;;;;;;;6.94;75.11;102816.41;5049514;28;20111;-79
2022/11/26 06:28:06;;;;;;;0.20;0.20;;;;;;;6.97;74.88;102816.53;5046912;28;20473;-79
2022/11/26 06:30:32;;;;;;;0.20;0.20;;;;;;;6.98;74.92;102818.31;5041891;28;20037;-79
2022/11/26 06:32:58;;;;;;;0.22;0.22;;;;;;;7.01;75.15;102817.50;5043723;28;20120;-78
2022/11/26 06:35:24;;;;;;;1.33;1.30;;;;;;;7.01;75.13;102823.66;5046441;28;20037;-79
2022/11/26 06:37:50;;;;;;;0.20;0.20;;;;;;;7.04;75.09;102823.75;5042336;28;20033;-79
2022/11/26 06:40:19;;;;;;;0.45;0.45;;;;;;;7.04;75.17;102829.03;5038733;28;20037;-79
2022/11/26 06:42:53;;;;;;;0.20;0.20;;;;;;;7.07;75.02;102829.09;5047449;28;20028;-79
2022/11/26 06:45:21;;;;;;;0.20;0.20;;;;;;;7.04;75.24;102829.03;5039285;28;20029;-79
2022/11/26 06:47:48;;;;;;;0.10;0.10;;;;;;;7.06;75.61;102835.19;5043159;28;20100;-79
2022/11/26 06:50:16;;;;;;;0.63;0.63;;;;;;;7.08;75.08;102836.16;5041019;28;20041;-78
2022/11/26 06:52:42;;;;;;;0.10;0.10;;;;;;;7.09;75.25;102837.94;5039499;28;20029;-79
2022/11/26 06:55:08;;;;;;;0.10;0.10;;;;;;;7.11;75.64;102841.47;5047866;28;20061;-79
2022/11/26 06:57:35;;;;;;;0.52;0.52;;;;;;;7.14;75.18;102845.97;5046251;28;20096;-79
2022/11/26 07:00:02;;;;;;;0.17;0.17;;;;;;;7.16;75.38;102844.25;5046629;28;20508;-80
2022/11/26 07:02:28;;;;;;;1.48;1.05;;;;;;;7.23;75.63;102854.13;5034381;28;20025;-79
2022/11/26 07:04:54;;;;;;;0.20;0.20;;;;;;;7.28;75.71;102856.88;5038539;28;20037;-78
2022/11/26 07:07:20;;;;;;;0.20;0.20;;;;;;;7.29;75.79;102856.03;5044750;28;20392;-79
2022/11/26 07:09:46;;;;;;;0.20;0.20;;;;;;;7.33;75.35;102852.63;5039949;28;20568;-79
2022/11/26 07:12:12;;;;;;;0.50;0.50;;;;;;;7.39;75.63;102862.41;5039892;28;20052;-79
2022/11/26 07:14:38;;;;;;;0.20;0.20;;;;;;;7.36;75.36;102847.41;5048002;28;20069;-79
2022/11/26 07:17:04;;;;;;;0.30;0.30;;;;;;;7.41;75.46;102866.00;5042939;28;20049;-78
2022/11/26 07:19:30;;;;;;;0.20;0.20;;;;;;;7.38;76.09;102866.81;5047277;28;20029;-79
2022/11/26 07:21:56;;;;;;;0.10;0.10;;;;;;;7.44;75.69;102864.31;5048604;28;20035;-77
2022/11/26 07:24:22;;;;;;;0.17;0.17;;;;;;;7.49;75.82;102875.00;5072539;28;20028;-78
2022/11/26 07:26:49;;;;;;;0.50;0.50;;;;;;;7.54;75.71;102861.91;5067882;28;20037;-79
2022/11/26 07:29:15;;;;;;;0.25;0.25;;;;;;;7.61;75.91;102869.13;5039956;28;20497;-79
2022/11/26 07:31:41;;;;;;;0.20;0.20;;;;;;;7.65;75.59;102864.81;5041778;28;20082;-78
2022/11/26 07:34:07;;;;;;;0.30;0.30;;;;;;;7.70;75.61;102863.19;5054443;28;20043;-78
2022/11/26 07:36:33;;;;;;;1.50;0.98;;;;;;;7.72;76.03;102862.38;5049773;28;20017;-78
2022/11/26 07:39:02;;;;;;;0.10;0.10;;;;;;;7.75;75.77;102862.44;5043366;28;20030;-78
2022/11/26 07:41:29;;;;;;;0.55;0.55;;;;;;;7.78;76.29;102866.91;5048756;28;20121;-79
2022/11/26 07:43:55;;;;;;;0.10;0.10;;;;;;;7.81;75.86;102860.81;5046930;28;20040;-78
2022/11/26 07:46:23;;;;;;;0.38;0.38;;;;;;;7.87;76.37;102871.50;5043067;28;20091;-78
2022/11/26 07:48:49;;;;;;;0.20;0.20;;;;;;;7.90;75.80;102875.13;5042733;28;20025;-79
2022/11/26 07:51:18;;;;;;;0.20;0.20;;;;;;;7.98;76.35;102872.66;5046648;28;20132;-79
2022/11/26 07:53:45;;;;;;;0.43;0.43;;;;;;;8.02;76.02;102871.88;5050921;28;20102;-79
2022/11/26 07:56:11;;;;;;;0.40;0.40;;;;;;;8.06;76.41;102873.75;5050726;28;20036;-79
2022/11/26 07:58:37;;;;;;;0.20;0.20;;;;;;;8.12;76.38;102865.06;5056795;28;20021;-78
2022/11/26 08:01:09;;;;;;;0.20;0.20;;;;;;;8.18;76.39;102874.88;5053584;28;20033;-79
2022/11/26 08:03:38;;;;;;;1.27;1.27;;;;;;;8.21;76.51;102878.47;5047285;28;20036;-79
2022/11/26 08:06:07;;;;;;;0.20;0.20;;;;;;;8.23;75.94;102881.16;5041654;28;20020;-77
2022/11/26 08:08:34;;;;;;;0.10;0.10;;;;;;;8.28;76.33;102884.78;5045733;28;20111;-79
2022/11/26 08:11:03;;;;;;;0.10;0.10;;;;;;;8.32;76.24;102888.38;5042682;28;20082;-80
2022/11/26 08:13:29;;;;;;;0.20;0.20;;;;;;;8.34;75.69;102879.63;5038951;28;20033;-80
2022/11/26 08:15:55;;;;;;;1.30;1.30;;;;;;;8.37;75.66;102885.00;5045157;28;20082;-80
2022/11/26 08:18:21;;;;;;;0.20;0.20;;;;;;;8.39;75.62;102880.63;5046189;28;20052;-80
2022/11/26 08:20:55;;;;;;;0.30;0.30;;;;;;;8.47;76.27;102882.56;5047644;28;20036;-80
2022/11/26 08:23:22;;;;;;;0.20;0.20;;;;;;;8.48;76.04;102887.88;5042836;28;20150;-80
2022/11/26 08:25:48;;;;;;;0.43;0.43;;;;;;;8.52;76.32;102888.84;5039095;28;20022;-80
2022/11/26 08:28:14;;;;;;;0.20;0.20;;;;;;;8.54;76.30;102887.16;5037798;28;20044;-80
2022/11/26 08:30:41;;;;;;;0.10;0.10;;;;;;;8.60;76.29;102889.00;5040197;28;20136;-80
2022/11/26 08:33:07;;;;;;;0.30;0.30;;;;;;;8.61;76.16;102889.06;5038319;28;20032;-80
2022/11/26 08:35:34;;;;;;;0.10;0.10;;;;;;;8.68;75.94;102892.72;5045476;28;20029;-80
2022/11/26 08:38:01;;;;;;;0.20;0.20;;;;;;;8.72;75.82;102890.19;5055223;28;20056;-80
2022/11/26 08:40:27;;;;;;;0.98;0.95;;;;;;;8.77;76.17;102886.72;5066759;28;20043;-79
2022/11/26 08:42:53;;;;;;;0.20;0.20;;;;;;;8.79;75.92;102893.81;5055999;28;20032;-80
2022/11/26 08:45:19;;;;;;;0.10;0.10;;;;;;;8.85;76.32;102885.16;5036427;28;20117;-80
2022/11/26 08:47:45;;;;;;;0.10;0.10;;;;;;;8.86;76.10;102889.53;5036286;28;20040;-80
2022/11/26 08:50:11;;;;;;;0.20;0.20;;;;;;;8.91;76.09;102898.47;5034262;28;20055;-80
2022/11/26 08:52:37;;;;;;;0.20;0.20;;;;;;;8.92;76.22;102896.72;5035983;28;20511;-81
2022/11/26 08:55:03;;;;;;;0.22;0.22;;;;;;;8.93;75.83;102896.75;5035548;28;20041;-81
2022/11/26 08:57:30;;;;;;;0.32;0.32;;;;;;;8.95;75.67;102895.03;5036130;28;20060;-80
2022/11/26 08:59:56;;;;;;;0.20;0.20;;;;;;;8.98;76.32;102895.06;5039562;28;20124;-81
2022/11/26 09:02:23;;;;;;;0.45;0.45;;;;;;;9.03;76.06;102903.09;5046052;28;20033;-81
2022/11/26 09:04:49;;;;;;;1.33;1.27;;;;;;;9.07;75.88;102903.19;5033880;28;20405;-80
2022/11/26 09:07:15;;;;;;;0.20;0.20;;;;;;;9.11;75.72;102908.53;5034685;28;20021;-80
2022/11/26 09:09:41;;;;;;;2.38;1.58;;;;;;;9.15;76.05;102913.03;5033838;28;20018;-81
2022/11/26 09:12:08;;;;;;;0.20;0.20;;;;;;;9.19;75.89;102909.59;5035057;28;20049;-80
2022/11/26 09:14:37;;;;;;;0.20;0.20;;;;;;;9.19;76.07;102914.88;5055454;28;20043;-81
2022/11/26 09:17:04;;;;;;;0.10;0.10;;;;;;;9.19;75.92;102917.53;5046460;28;20029;-80
2022/11/26 09:19:31;;;;;;;0.25;0.25;;;;;;;9.16;75.84;102925.38;5040189;28;20116;-80
2022/11/26 09:21:58;;;;;;;0.20;0.20;;;;;;;9.17;75.95;102927.16;5035991;28;20084;-81
2022/11/26 09:24:24;;;;;;;0.17;0.17;;;;;;;9.21;76.12;102923.75;5035636;28;20025;-81
2022/11/26 09:26:50;;;;;;;0.50;0.50;;;;;;;9.22;75.85;102915.84;5038903;28;20492;-81
2022/11/26 09:29:19;;;;;;;0.17;0.17;;;;;;;9.28;76.01;102907.09;5040418;28;20602;-81
2022/11/26 09:31:46;;;;;;;0.47;0.47;;;;;;;9.34;75.92;102909.84;5047093;28;20585;-80
2022/11/26 09:34:12;;;;;;;0.40;0.40;;;;;;;9.39;75.63;102905.56;5039187;28;20087;-81
2022/11/26 09:36:39;;;;;;;7.65;1.58;;;;;;;9.46;75.80;102892.41;5047617;28;20080;-81
2022/11/26 09:39:05;;;;;;;0.52;0.52;;;;;;;9.51;75.82;102906.66;5040451;28;20029;-80
2022/11/26 09:44:49;;;;;;;0.40;0.40;;;;;;;9.70;75.88;102908.72;5097683;27;20942;-78
2022/11/26 09:47:18;;;;;;;0.25;0.25;;;;;;;9.70;75.70;102914.03;5096316;28;20040;-79
2022/11/26 09:52:45;;;;;;;0.10;0.10;;;;;;;9.80;75.64;102904.47;5101264;27;1239231;-78
2022/11/26 10:00:43;;;;;;;1.27;1.17;;;;;;;10.04;76.05;102904.00;5109242;27;20420;-80
2022/11/26 10:03:14;;;;;;;2.65;0.98;;;;;;;10.09;75.90;102906.69;5079140;28;20037;-80
2022/11/26 10:06:04;;;;;;;0.20;0.20;;;;;;;10.17;75.39;102920.06;5079443;28;20032;-80
2022/11/26 10:08:53;;;;;;;0.20;0.20;;;;;;;10.18;75.52;102901.53;5081612;28;20445;-79
2022/11/26 10:14:37;;;;;;;0.25;0.25;;;;;;;10.22;75.00;102902.50;5132636;27;20398;-79
2022/11/26 10:22:40;;;;;;;0.20;0.20;;;;;;;10.32;75.11;102912.34;5088473;27;1187285;-78
2022/11/26 10:25:16;;;;;;;0.10;0.10;;;;;;;10.29;75.26;102903.44;5093329;28;20028;-78
2022/11/26 10:27:42;;;;;;;0.20;0.20;;;;;;;10.27;75.22;102902.53;5089613;28;20024;-78
2022/11/26 10:30:20;;;;;;;0.30;0.30;;;;;;;10.32;75.30;102907.03;5093077;28;20024;-78
2022/11/26 10:32:49;;;;;;;0.10;0.10;;;;;;;10.32;75.44;102901.75;5080510;28;20029;-78
2022/11/26 10:35:22;;;;;;;0.30;0.30;;;;;;;10.38;75.09;102902.72;5086556;28;20165;-78
2022/11/26 10:37:49;;;;;;;0.77;0.35;;;;;;;10.41;75.23;102905.44;5089894;28;20020;-79
2022/11/26 10:43:16;;;;;;;0.25;0.25;;;;;;;10.51;75.50;102899.38;5073545;27;1873062;-79
2022/11/26 10:48:34;;;;;;;0.38;0.38;;;;;;;10.65;75.29;102900.47;5075733;27;1891000;-80
2022/11/26 10:51:24;;;;;;;0.30;0.30;;;;;;;10.78;75.37;102887.31;5099698;28;20111;-80
2022/11/26 10:53:58;;;;;;;0.20;0.20;;;;;;;10.81;75.35;102882.06;5093294;28;20023;-81
2022/11/26 10:56:51;;;;;;;0.10;0.10;;;;;;;10.90;75.39;102882.16;5099442;28;20141;-81
2022/11/26 10:59:23;;;;;;;0.38;0.38;;;;;;;11.00;75.24;102892.03;5102436;28;20020;-80
2022/11/26 11:01:50;;;;;;;9.07;2.60;;;;;;;11.16;75.22;102889.53;5099518;28;20419;-81
2022/11/26 11:06:59;;;;;;;0.20;0.20;;;;;;;11.39;74.90;102897.72;5111396;27;20392;-80
2022/11/26 11:09:31;;;;;;;0.10;0.10;;;;;;;11.53;75.08;102895.19;5112930;28;20027;-80
2022/11/26 11:12:18;;;;;;;0.20;0.20;;;;;;;11.63;74.49;102897.06;5114185;28;20049;-79
2022/11/26 11:14:45;;;;;;;0.30;0.30;;;;;;;11.65;74.36;102894.41;5129233;28;20031;-79
2022/11/26 11:17:29;;;;;;;0.10;0.10;;;;;;;11.72;73.76;102893.59;5118085;28;20028;-80
2022/11/26 11:19:58;;;;;;;1.38;1.38;;;;;;;11.73;74.04;102897.16;5106936;28;20016;-81
2022/11/26 11:22:25;;;;;;;0.20;0.20;;;;;;;11.76;73.69;102910.44;5107902;28;20402;-80
2022/11/26 11:24:59;;;;;;;0.10;0.10;;;;;;;11.78;73.35;102901.59;5107975;28;20032;-80
2022/11/26 11:27:36;;;;;;;0.10;0.10;;;;;;;11.82;73.35;102907.81;5106940;28;20073;-81
2022/11/26 11:30:03;;;;;;;0.25;0.25;;;;;;;11.90;74.31;102903.47;5106397;28;20078;-80
2022/11/26 11:32:35;;;;;;;0.20;0.20;;;;;;;11.96;74.33;102895.59;5107907;28;20028;-81
2022/11/26 11:35:21;;;;;;;;;;;;;;;12.08;73.87;102893.88;5104097;28;20115;-81
2022/11/26 11:37:50;;;;;;;0.20;0.20;;;;;;;11.98;73.30;102888.50;5104162;28;19912;-81
2022/11/26 11:40:23;;;;;;;0.85;0.85;;;;;;;11.95;73.26;102888.47;5107765;28;20015;-80
2022/11/26 11:42:55;;;;;;;0.55;0.55;;;;;;;11.95;73.69;102892.84;5102986;28;20109;-81
2022/11/26 11:45:42;;;;;;;0.20;0.20;;;;;;;11.95;73.52;102874.25;5095405;28;20506;-81
2022/11/26 11:53:58;;;;;;;0.85;0.85;;;;;;;11.82;72.64;102871.56;5147795;27;20413;-79
2022/11/26 11:56:38;;;;;;;0.20;0.20;;;;;;;11.79;73.03;102876.81;5129103;28;20035;-81
2022/11/26 12:02:22;;;;;;;0.70;0.50;;;;;;;11.81;72.71;102877.75;5049902;28;20198;-80
2022/11/26 12:05:02;;;;;;;0.20;0.20;;;;;;;11.75;72.82;102874.13;5046746;28;20567;-80
2022/11/26 12:12:59;;;;;;;0.10;0.10;;;;;;;11.82;72.88;102873.31;5127839;27;20405;-82
2022/11/26 12:21:11;;;;;;;0.10;0.10;;;;;;;12.16;72.64;102881.53;5049787;27;20861;-80
2022/11/26 12:23:54;;;;;;;0.10;0.10;;;;;;;12.29;72.56;102885.16;5034412;28;20035;-80
2022/11/26 12:26:32;;;;;;;0.52;0.52;;;;;;;12.35;72.37;102892.25;5038477;28;20093;-81
2022/11/26 12:29:08;;;;;;;0.38;0.38;;;;;;;12.44;72.52;102887.00;5040182;27;20022;-79
2022/11/26 12:31:47;;;;;;;0.10;0.10;;;;;;;12.46;71.98;102886.13;5059839;27;20037;-81
2022/11/26 12:34:31;;;;;;;1.15;0.75;;;;;;;12.49;71.48;102879.06;5060152;28;20069;-82
2022/11/26 12:39:52;;;;;;;0.22;0.22;;;;;;;12.48;71.54;102878.16;5066747;27;20417;-79
2022/11/26 12:42:29;;;;;;;0.20;0.20;;;;;;;12.55;71.01;102871.13;5048219;28;20067;-80
2022/11/26 12:45:20;;;;;;;0.30;0.30;;;;;;;12.60;70.86;102856.94;5040453;28;20036;-80